createdAt,value
2018-09-25T00:02:01.246Z,93.70
2018-09-25T00:04:47.883Z,93.60
2018-09-25T00:07:34.115Z,93.40
2018-09-25T00:10:20.444Z,93.70
2018-09-25T00:13:06.971Z,93.80
2018-09-25T00:15:53.145Z,93.80
2018-09-25T00:18:39.327Z,93.80
2018-09-25T00:21:25.945Z,93.80
2018-09-25T00:24:12.435Z,93.60
2018-09-25T00:26:58.762Z,93.20
2018-09-25T00:29:45.056Z,93.10
2018-09-25T00:32:31.611Z,93.00
2018-09-25T00:35:17.984Z,92.70
2018-09-25T00:38:04.270Z,92.80
2018-09-25T00:40:50.623Z,92.90
2018-09-25T00:43:37.136Z,92.80
2018-09-25T00:46:23.323Z,92.80
2018-09-25T00:49:09.740Z,92.70
2018-09-25T00:51:56.028Z,92.50
2018-09-25T00:54:42.454Z,92.50
2018-09-25T00:57:29.460Z,92.60
2018-09-25T01:00:15.247Z,92.60
2018-09-25T01:03:02.305Z,92.90
2018-09-25T01:05:48.219Z,92.80
2018-09-25T01:08:34.594Z,92.90
2018-09-25T01:11:20.899Z,92.90
2018-09-25T01:14:07.112Z,92.90
2018-09-25T01:16:53.751Z,92.90
2018-09-25T01:19:39.916Z,92.90
2018-09-25T01:22:27.011Z,93.00
2018-09-25T01:25:12.776Z,92.90
2018-09-25T01:27:59.290Z,92.80
2018-09-25T01:30:45.622Z,92.90
2018-09-25T01:33:32.128Z,92.80
2018-09-25T01:36:18.752Z,92.80
2018-09-25T01:39:05.089Z,92.90
2018-09-25T01:41:51.343Z,92.90
2018-09-25T01:44:38.616Z,92.80
2018-09-25T01:47:25.232Z,92.90
2018-09-25T01:50:11.511Z,93.10
2018-09-25T01:52:57.979Z,93.10
2018-09-25T01:55:44.339Z,92.60
2018-09-25T01:58:30.892Z,92.40
2018-09-25T02:01:17.267Z,92.20
2018-09-25T02:04:03.867Z,91.90
2018-09-25T02:06:50.259Z,91.70
2018-09-25T02:09:36.656Z,91.60
2018-09-25T02:12:23.128Z,91.40
2018-09-25T02:15:09.592Z,91.70
2018-09-25T02:17:55.983Z,91.30
2018-09-25T02:20:42.520Z,90.80
2018-09-25T02:23:28.732Z,90.40
2018-09-25T02:26:15.100Z,90.30
2018-09-25T02:29:01.559Z,90.30
2018-09-25T02:31:48.007Z,90.40
2018-09-25T02:34:35.331Z,90.20
2018-09-25T02:37:20.887Z,90.30
2018-09-25T02:40:07.321Z,90.10
2018-09-25T02:42:53.581Z,90.20
2018-09-25T02:45:40.201Z,90.00
2018-09-25T02:48:26.290Z,90.00
2018-09-25T02:51:12.884Z,90.00
2018-09-25T02:53:59.195Z,88.80
2018-09-25T02:56:45.395Z,89.70
2018-09-25T02:59:31.906Z,89.30
2018-09-25T03:02:18.121Z,88.30
2018-09-25T03:05:05.231Z,87.30
2018-09-25T03:07:52.447Z,87.00
2018-09-25T03:10:38.080Z,87.20
2018-09-25T03:13:24.523Z,86.90
2018-09-25T03:16:10.964Z,87.10
2018-09-25T03:18:57.823Z,87.00
2018-09-25T03:21:43.686Z,87.10
2018-09-25T03:24:30.019Z,87.20
2018-09-25T03:27:16.513Z,87.00
2018-09-25T03:30:02.720Z,86.80
2018-09-25T03:32:49.200Z,87.60
2018-09-25T03:35:35.923Z,87.50
2018-09-25T03:38:21.851Z,86.50
2018-09-25T03:41:08.124Z,87.10
2018-09-25T03:43:54.659Z,86.70
2018-09-25T03:46:41.028Z,87.10
2018-09-25T03:49:27.339Z,87.00
2018-09-25T03:52:13.606Z,87.20
2018-09-25T03:55:01.128Z,87.30
2018-09-25T03:57:47.476Z,87.50
2018-09-25T04:00:33.903Z,87.50
2018-09-25T04:03:20.320Z,87.50
2018-09-25T04:06:06.873Z,87.70
2018-09-25T04:08:53.703Z,88.70
2018-09-25T04:11:39.671Z,89.20
2018-09-25T04:14:26.235Z,89.20
2018-09-25T04:17:12.404Z,89.70
2018-09-25T04:19:58.951Z,90.30
2018-09-25T04:22:45.483Z,90.30
2018-09-25T04:25:31.676Z,90.50
2018-09-25T04:28:18.109Z,90.70
2018-09-25T04:31:04.489Z,90.60
2018-09-25T04:33:50.771Z,90.50
2018-09-25T04:36:37.220Z,90.70
2018-09-25T04:39:23.377Z,90.80
2018-09-25T04:42:09.965Z,90.90
2018-09-25T04:44:56.428Z,90.90
2018-09-25T04:47:42.625Z,91.00
2018-09-25T04:50:29.123Z,91.10
2018-09-25T04:53:15.303Z,91.20
2018-09-25T04:56:01.960Z,91.20
2018-09-25T04:58:48.272Z,91.10
2018-09-25T05:01:34.863Z,91.00
2018-09-25T05:04:21.326Z,91.00
2018-09-25T05:07:07.723Z,91.00
2018-09-25T05:09:54.054Z,91.30
2018-09-25T05:12:40.602Z,91.30
2018-09-25T05:15:26.815Z,91.30
2018-09-25T05:18:13.308Z,91.40
2018-09-25T05:21:00.347Z,91.40
2018-09-25T05:23:46.128Z,91.40
2018-09-25T05:26:32.681Z,91.50
2018-09-25T05:29:19.024Z,91.60
2018-09-25T05:32:05.196Z,91.70
2018-09-25T05:34:51.601Z,91.80
2018-09-25T05:37:38.680Z,91.80
2018-09-25T05:40:24.484Z,91.80
2018-09-25T05:43:10.723Z,91.80
2018-09-25T05:45:57.115Z,91.80
2018-09-25T05:48:43.660Z,91.90
2018-09-25T05:51:30.025Z,91.90
2018-09-25T05:54:16.483Z,91.90
2018-09-25T05:57:03.039Z,92.00
2018-09-25T05:59:49.330Z,91.90
2018-09-25T06:02:35.871Z,92.00
2018-09-25T06:05:22.165Z,92.00
2018-09-25T06:08:08.551Z,92.00
2018-09-25T06:10:54.790Z,92.00
2018-09-25T06:13:41.184Z,92.10
2018-09-25T06:16:27.606Z,92.10
2018-09-25T06:19:13.943Z,91.90
2018-09-25T06:22:00.303Z,91.50
2018-09-25T06:24:46.963Z,91.60
2018-09-25T06:27:33.349Z,91.60
2018-09-25T06:30:19.703Z,91.10
2018-09-25T06:33:05.963Z,91.00
2018-09-25T06:35:52.379Z,90.50
2018-09-25T06:38:38.640Z,90.30
2018-09-25T06:41:25.023Z,90.30
2018-09-25T06:44:11.331Z,89.70
2018-09-25T06:46:57.671Z,89.30
2018-09-25T06:49:44.599Z,87.40
2018-09-25T06:52:30.395Z,87.80
2018-09-25T06:55:16.908Z,88.10
2018-09-25T06:58:03.306Z,87.80
2018-09-25T07:00:49.879Z,87.60
2018-09-25T07:03:36.224Z,87.50
2018-09-25T07:06:22.463Z,87.20
2018-09-25T07:09:08.788Z,87.40
2018-09-25T07:11:55.158Z,87.10
2018-09-25T07:14:41.427Z,85.90
2018-09-25T07:17:27.936Z,85.90
2018-09-25T07:20:14.360Z,84.70
2018-09-25T07:23:00.865Z,86.00
2018-09-25T07:25:47.102Z,85.50
2018-09-25T07:28:33.587Z,84.70
2018-09-25T07:31:19.963Z,84.20
2018-09-25T07:34:06.251Z,83.90
2018-09-25T07:36:52.800Z,83.60
2018-09-25T07:39:39.020Z,83.90
2018-09-25T07:42:25.527Z,83.30
2018-09-25T07:45:11.791Z,83.90
2018-09-25T07:47:57.459Z,82.90
2018-09-25T07:50:43.943Z,82.60
2018-09-25T07:53:30.417Z,81.80
2018-09-25T07:56:16.767Z,81.40
2018-09-25T07:59:03.052Z,81.70
2018-09-25T08:01:49.215Z,79.60
2018-09-25T08:04:35.580Z,78.40
2018-09-25T08:07:22.640Z,78.70
2018-09-25T08:10:08.416Z,79.10
2018-09-25T08:12:54.944Z,79.90
2018-09-25T08:15:41.349Z,78.40
2018-09-25T08:18:27.527Z,78.10
2018-09-25T08:21:14.159Z,75.00
2018-09-25T08:24:00.420Z,74.70
2018-09-25T08:26:46.787Z,72.80
2018-09-25T08:29:33.301Z,71.70
2018-09-25T08:32:19.867Z,71.70
2018-09-25T08:35:06.018Z,70.10
2018-09-25T08:37:52.376Z,68.50
2018-09-25T08:40:38.664Z,65.40
2018-09-25T08:43:25.240Z,64.60
2018-09-25T08:46:12.155Z,64.30
2018-09-25T08:48:58.096Z,62.60
2018-09-25T08:51:44.456Z,61.70
2018-09-25T08:54:31.432Z,61.90
2018-09-25T08:57:17.470Z,61.30
2018-09-25T09:00:03.503Z,61.60
2018-09-25T09:02:49.974Z,61.60
2018-09-25T09:05:36.111Z,60.40
2018-09-25T09:08:21.770Z,61.00
2018-09-25T09:11:08.126Z,60.60
2018-09-25T09:13:54.341Z,59.70
2018-09-25T09:16:40.731Z,59.90
2018-09-25T09:19:27.421Z,60.90
2018-09-25T09:22:13.535Z,60.50
2018-09-25T09:25:00.046Z,61.90
2018-09-25T09:27:46.453Z,62.30
2018-09-25T09:30:32.762Z,62.60
2018-09-25T09:33:19.055Z,62.50
2018-09-25T09:36:05.567Z,62.60
2018-09-25T09:38:51.903Z,64.30
2018-09-25T09:41:38.685Z,63.90
2018-09-25T09:44:24.700Z,64.20
2018-09-25T09:47:11.055Z,65.00
2018-09-25T09:49:58.108Z,62.60
2018-09-25T09:52:43.769Z,61.30
2018-09-25T09:55:29.235Z,61.90
2018-09-25T09:58:16.303Z,61.80
2018-09-25T10:01:02.231Z,61.00
2018-09-25T10:03:48.634Z,60.90
2018-09-25T10:06:35.074Z,60.30
2018-09-25T10:09:21.245Z,60.50
2018-09-25T10:12:07.767Z,61.30
2018-09-25T10:14:54.128Z,59.60
2018-09-25T10:17:40.692Z,59.20
2018-09-25T10:20:27.150Z,59.20
2018-09-25T10:23:13.750Z,59.60
2018-09-25T10:26:00.943Z,58.80
2018-09-25T10:28:46.707Z,59.00
2018-09-25T10:31:32.899Z,59.80
2018-09-25T10:34:19.442Z,60.30
2018-09-25T10:37:05.851Z,60.20
2018-09-25T10:39:52.147Z,60.50
2018-09-25T10:42:38.628Z,58.70
2018-09-25T10:45:25.103Z,59.50
2018-09-25T10:48:11.440Z,59.80
2018-09-25T10:50:57.848Z,60.70
2018-09-25T10:53:44.411Z,60.10
2018-09-25T10:56:30.700Z,58.50
2018-09-25T10:59:17.012Z,59.50
2018-09-25T11:02:03.424Z,60.80
2018-09-25T11:04:49.948Z,61.30
2018-09-25T11:07:36.167Z,61.20
2018-09-25T11:10:22.598Z,60.90
2018-09-25T11:13:08.867Z,61.90
2018-09-25T11:15:55.421Z,62.90
2018-09-25T11:18:41.984Z,64.70
2018-09-25T11:21:28.376Z,66.70
2018-09-25T11:24:14.814Z,67.50
2018-09-25T11:27:00.954Z,67.70
2018-09-25T11:29:47.539Z,67.80
2018-09-25T11:32:33.738Z,67.60
2018-09-25T11:35:20.301Z,67.10
2018-09-25T11:38:06.814Z,67.90
2018-09-25T11:40:52.816Z,68.10
2018-09-25T11:43:39.251Z,68.30
2018-09-25T11:46:26.044Z,67.60
2018-09-25T11:49:12.021Z,67.90
2018-09-25T11:51:58.499Z,66.60
2018-09-25T11:54:44.859Z,66.50
2018-09-25T11:57:31.268Z,63.20
2018-09-25T12:00:18.479Z,63.80
2018-09-25T12:03:05.140Z,62.50
2018-09-25T12:05:51.460Z,60.40
2018-09-25T12:08:38.445Z,58.70
2018-09-25T12:11:24.373Z,58.30
2018-09-25T12:14:10.752Z,58.40
2018-09-25T12:16:57.224Z,59.20
2018-09-25T12:19:43.925Z,59.40
2018-09-25T12:22:30.107Z,59.00
2018-09-25T12:25:16.528Z,59.60
2018-09-25T12:28:03.141Z,59.30
2018-09-25T12:30:49.480Z,59.30
2018-09-25T12:33:35.918Z,58.90
2018-09-25T12:36:22.232Z,60.60
2018-09-25T12:39:08.543Z,61.50
2018-09-25T12:41:55.005Z,61.00
2018-09-25T12:44:41.584Z,61.10
2018-09-25T12:47:27.944Z,61.80
2018-09-25T12:50:14.416Z,63.10
2018-09-25T12:53:08.001Z,62.10
2018-09-25T12:55:54.498Z,61.80
2018-09-25T12:58:40.764Z,61.60
2018-09-25T13:01:27.396Z,62.70
2018-09-25T13:04:13.903Z,61.20
2018-09-25T13:07:00.227Z,62.80
2018-09-25T13:09:46.950Z,63.70
2018-09-25T13:12:33.250Z,63.80
2018-09-25T13:15:19.463Z,63.60
2018-09-25T13:18:06.797Z,62.80
2018-09-25T13:20:53.372Z,62.70
2018-09-25T13:23:39.497Z,62.90
2018-09-25T13:26:25.896Z,63.90
2018-09-25T13:29:12.357Z,65.50
2018-09-25T13:31:58.595Z,64.60
2018-09-25T13:34:45.015Z,66.20
2018-09-25T13:37:31.335Z,67.00
2018-09-25T13:40:18.392Z,67.00
2018-09-25T13:43:03.936Z,67.50
2018-09-25T13:45:50.220Z,69.40
2018-09-25T13:48:36.663Z,70.60
2018-09-25T13:51:23.151Z,72.10
2018-09-25T13:54:09.740Z,71.20
2018-09-25T13:56:56.115Z,72.60
2018-09-25T13:59:42.427Z,73.20
2018-09-25T14:02:28.832Z,74.30
2018-09-25T14:05:15.385Z,74.50
2018-09-25T14:08:01.655Z,75.90
2018-09-25T14:10:48.024Z,76.10
2018-09-25T14:13:34.380Z,75.50
2018-09-25T14:16:21.192Z,75.90
2018-09-25T14:19:08.128Z,77.20
2018-09-25T14:21:54.636Z,76.60
2018-09-25T14:24:40.976Z,77.80
2018-09-25T14:27:27.388Z,77.40
2018-09-25T14:30:13.860Z,78.10
2018-09-25T14:33:00.298Z,77.60
2018-09-25T14:35:46.655Z,78.50
2018-09-25T14:38:33.083Z,78.90
2018-09-25T14:41:19.425Z,78.90
2018-09-25T14:44:05.955Z,78.30
2018-09-25T14:46:52.403Z,79.40
2018-09-25T14:49:38.947Z,79.00
2018-09-25T14:52:25.292Z,79.50
2018-09-25T14:55:11.695Z,79.90
2018-09-25T14:57:58.144Z,80.20
2018-09-25T15:00:44.671Z,80.80
2018-09-25T15:03:31.121Z,81.80
2018-09-25T15:06:17.515Z,82.00
2018-09-25T15:09:03.804Z,81.80
2018-09-25T15:11:50.231Z,82.50
2018-09-25T15:14:36.864Z,81.40
2018-09-25T15:17:23.164Z,82.00
2018-09-25T15:20:09.615Z,82.30
2018-09-25T15:22:56.169Z,82.20
2018-09-25T15:25:42.516Z,82.00
2018-09-25T15:28:29.875Z,83.20
2018-09-25T15:31:16.241Z,79.50
2018-09-25T15:34:02.856Z,79.10
2018-09-25T15:36:49.119Z,78.90
2018-09-25T15:39:35.507Z,78.80
2018-09-25T15:42:21.212Z,80.00
2018-09-25T15:45:07.472Z,82.40
2018-09-25T15:47:54.065Z,79.10
2018-09-25T15:50:40.361Z,79.60
2018-09-25T15:53:26.744Z,80.90
2018-09-25T15:56:13.063Z,79.40
2018-09-25T15:58:59.305Z,79.10
2018-09-25T16:01:46.363Z,79.70
2018-09-25T16:04:32.101Z,79.80
2018-09-25T16:07:18.436Z,80.40
2018-09-25T16:10:04.607Z,79.40
2018-09-25T16:12:51.011Z,80.30
2018-09-25T16:15:37.396Z,80.10
2018-09-25T16:18:23.687Z,80.40
2018-09-25T16:21:10.134Z,80.40
2018-09-25T16:23:56.544Z,80.20
2018-09-25T16:26:42.880Z,80.80
2018-09-25T16:29:29.403Z,81.00
2018-09-25T16:32:15.612Z,81.80
2018-09-25T16:35:02.193Z,81.90
2018-09-25T16:37:48.678Z,81.70
2018-09-25T16:40:35.020Z,82.20
2018-09-25T16:43:21.496Z,82.00
2018-09-25T16:46:07.903Z,82.00
2018-09-25T16:48:54.223Z,82.10
2018-09-25T16:51:40.744Z,82.30
2018-09-25T16:54:27.147Z,82.10
2018-09-25T16:57:13.532Z,82.40
2018-09-25T17:00:00.064Z,82.50
2018-09-25T17:02:46.445Z,83.10
2018-09-25T17:05:33.060Z,83.00
2018-09-25T17:08:19.211Z,82.90
2018-09-25T17:11:06.236Z,83.30
2018-09-25T17:13:52.699Z,83.40
2018-09-25T17:16:38.528Z,83.70
2018-09-25T17:19:24.049Z,83.60
2018-09-25T17:22:10.463Z,83.80
2018-09-25T17:24:56.706Z,83.70
2018-09-25T17:27:43.287Z,83.90
2018-09-25T17:30:29.459Z,84.10
2018-09-25T17:33:16.055Z,83.90
2018-09-25T17:36:02.339Z,84.00
2018-09-25T17:38:48.842Z,84.10
2018-09-25T17:41:35.195Z,84.20
2018-09-25T17:44:21.683Z,84.30
2018-09-25T17:47:07.935Z,84.50
2018-09-25T17:49:54.780Z,84.40
2018-09-25T17:52:40.739Z,84.40
2018-09-25T17:55:27.176Z,84.30
2018-09-25T17:58:13.527Z,84.40
2018-09-25T18:00:59.876Z,84.40
2018-09-25T18:03:46.196Z,84.40
2018-09-25T18:06:32.835Z,84.50
2018-09-25T18:09:19.381Z,84.30
2018-09-25T18:12:05.744Z,84.30
2018-09-25T18:14:52.201Z,84.20
2018-09-25T18:17:38.412Z,84.90
2018-09-25T18:20:25.851Z,84.10
2018-09-25T18:23:11.521Z,84.10
2018-09-25T18:25:57.831Z,83.80
2018-09-25T18:28:44.197Z,83.80
2018-09-25T18:31:30.543Z,83.80
2018-09-25T18:34:16.960Z,83.40
2018-09-25T18:37:03.904Z,83.50
2018-09-25T18:39:49.743Z,83.20
2018-09-25T18:42:36.005Z,82.80
2018-09-25T18:45:22.447Z,82.60
2018-09-25T18:48:08.859Z,82.30
2018-09-25T18:50:55.235Z,81.90
2018-09-25T18:53:41.627Z,81.70
2018-09-25T18:56:28.128Z,81.60
2018-09-25T18:59:14.627Z,81.50
2018-09-25T19:02:01.776Z,81.60
2018-09-25T19:04:49.104Z,81.50
2018-09-25T19:07:35.864Z,81.40
2018-09-25T19:10:22.137Z,81.20
2018-09-25T19:13:08.684Z,81.20
2018-09-25T19:15:55.763Z,80.90
2018-09-25T19:18:43.043Z,81.00
2018-09-25T19:21:29.697Z,81.00
2018-09-25T19:24:16.151Z,81.00
2018-09-25T19:27:02.492Z,80.20
2018-09-25T19:29:48.983Z,79.80
2018-09-25T19:32:36.063Z,79.80
2018-09-25T19:35:22.384Z,79.60
2018-09-25T19:38:08.450Z,79.40
2018-09-25T19:40:54.875Z,79.30
2018-09-25T19:43:41.287Z,79.40
2018-09-25T19:46:28.880Z,79.40
2018-09-25T19:49:15.059Z,79.20
2018-09-25T19:52:01.584Z,79.50
2018-09-25T19:54:47.982Z,79.40
2018-09-25T19:57:34.939Z,79.60
2018-09-25T20:00:20.868Z,79.60
2018-09-25T20:03:07.574Z,79.70
2018-09-25T20:05:53.613Z,79.70
2018-09-25T20:08:40.088Z,79.60
2018-09-25T20:11:26.656Z,79.80
2018-09-25T20:14:12.815Z,79.80
2018-09-25T20:16:59.348Z,80.10
2018-09-25T20:19:46.779Z,80.10
2018-09-25T20:22:33.319Z,80.50
2018-09-25T20:25:19.547Z,79.90
2018-09-25T20:28:06.228Z,79.80
2018-09-25T20:30:52.606Z,79.70
2018-09-25T20:33:39.048Z,79.80
2018-09-25T20:36:25.404Z,80.00
2018-09-25T20:39:11.867Z,80.10
2018-09-25T20:41:58.068Z,80.20
2018-09-25T20:44:44.499Z,80.30
2018-09-25T20:47:30.753Z,80.60
2018-09-25T20:50:16.395Z,80.40
2018-09-25T20:53:02.927Z,80.80
2018-09-25T20:55:49.471Z,81.00
2018-09-25T20:58:35.864Z,81.40
2018-09-25T21:01:22.291Z,81.80
2018-09-25T21:04:08.744Z,82.10
2018-09-25T21:06:55.374Z,82.40
2018-09-25T21:09:41.553Z,82.40
2018-09-25T21:12:27.736Z,82.40
2018-09-25T21:15:14.075Z,82.50
2018-09-25T21:18:00.771Z,82.40
2018-09-25T21:20:46.875Z,82.50
2018-09-25T21:23:33.448Z,82.40
2018-09-25T21:26:19.612Z,82.40
2018-09-25T21:29:06.156Z,82.80
2018-09-25T21:31:52.680Z,83.00
2018-09-25T21:34:39.027Z,83.20
2018-09-25T21:37:25.536Z,83.30
2018-09-25T21:40:11.887Z,83.50
2018-09-25T21:42:58.292Z,83.60
2018-09-25T21:45:44.430Z,83.70
2018-09-25T21:48:30.968Z,84.00
2018-09-25T21:51:17.717Z,84.00
2018-09-25T21:54:03.583Z,84.20
2018-09-25T21:56:49.989Z,84.20
2018-09-25T21:59:36.439Z,84.40
2018-09-25T22:02:22.721Z,84.40
2018-09-25T22:05:09.053Z,84.40
2018-09-25T22:07:55.397Z,84.40
2018-09-25T22:10:41.847Z,84.10
2018-09-25T22:13:28.752Z,83.90
2018-09-25T22:16:14.531Z,83.80
2018-09-25T22:19:01.039Z,83.70
2018-09-25T22:21:47.435Z,83.90
2018-09-25T22:24:33.924Z,83.90
2018-09-25T22:27:20.273Z,84.00
2018-09-25T22:30:06.660Z,83.80
2018-09-25T22:32:53.074Z,83.90
2018-09-25T22:35:39.580Z,83.80
2018-09-25T22:38:25.863Z,84.10
2018-09-25T22:41:12.251Z,84.00
2018-09-25T22:43:58.417Z,84.10
2018-09-25T22:46:44.807Z,84.30
2018-09-25T22:49:31.248Z,84.00
2018-09-25T22:52:17.867Z,84.10
2018-09-25T22:55:04.227Z,84.10
2018-09-25T22:57:51.248Z,84.30
2018-09-25T23:00:37.055Z,84.00
2018-09-25T23:03:23.302Z,83.90
2018-09-25T23:06:09.803Z,83.50
2018-09-25T23:08:56.111Z,83.30
2018-09-25T23:11:42.628Z,83.20
2018-09-25T23:14:28.871Z,83.30
2018-09-25T23:17:15.300Z,83.20
2018-09-25T23:20:01.652Z,83.00
2018-09-25T23:22:47.939Z,83.00
2018-09-25T23:25:34.345Z,82.90
2018-09-25T23:28:20.747Z,83.00
2018-09-25T23:31:06.968Z,83.00
2018-09-25T23:33:54.206Z,83.60
2018-09-25T23:36:40.571Z,82.90
2018-09-25T23:39:43.294Z,83.00
2018-09-25T23:42:45.575Z,82.90
2018-09-25T23:45:34.883Z,83.30
2018-09-25T23:48:20.679Z,82.90
2018-09-25T23:51:06.711Z,82.90
2018-09-25T23:53:52.744Z,82.90
2018-09-25T23:56:38.472Z,83.40
2018-09-25T23:59:25.058Z,83.20
